Breckenridge, Michigan
Current Conditions -  °F | °C
As of 5:51 AM on Friday 28 Nov 2014 (Local Time) from KAMN Reporting Station
Clear Clear  
Wind Chill: 18°   Ceiling: Unl
Heat Index: 18°   Visibility: 10mi
Dew Point: 11°   Wind: 0mph
Humidity: 74%   Direction: NA
Pressure: 30.33"   Gusts: NA
Location:  43.41°N, 84.48°W
Report Text: KAMN 281051Z AUTO 00000KT 10SM CLR M08/M11 A3033 RMK AO2 T10761115
Loading
Personal Weather Stations






























Interactive Weather Map New forecast layout! Learn more

10-Day Weather Forecast

Advertisements
Track Severe Weather on mobile